createdAt,value
2022-08-20T00:00:42.059Z,22.51
2022-08-20T00:03:15.651Z,22.53
2022-08-20T00:05:52.108Z,22.60
2022-08-20T00:08:27.981Z,22.69
2022-08-20T00:11:00.070Z,22.72
2022-08-20T00:13:35.948Z,22.72
2022-08-20T00:16:09.558Z,22.66
2022-08-20T00:18:41.272Z,22.59
2022-08-20T00:21:18.633Z,22.60
2022-08-20T00:23:52.356Z,22.59
2022-08-20T00:26:24.510Z,22.56
2022-08-20T00:28:55.849Z,22.53
2022-08-20T00:31:27.620Z,22.57
2022-08-20T00:33:58.450Z,22.64
2022-08-20T00:36:32.373Z,22.65
2022-08-20T00:39:04.247Z,22.65
2022-08-20T00:41:35.164Z,22.56
2022-08-20T00:44:13.198Z,22.48
2022-08-20T00:46:45.731Z,22.47
2022-08-20T00:49:19.680Z,22.53
2022-08-20T00:51:54.100Z,22.58
2022-08-20T00:54:29.042Z,22.61
2022-08-20T00:57:04.610Z,22.60
2022-08-20T00:59:39.925Z,22.58
2022-08-20T01:02:14.619Z,22.54
2022-08-20T01:04:47.924Z,22.50
2022-08-20T01:07:20.540Z,22.43
2022-08-20T01:09:58.305Z,22.47
2022-08-20T01:12:32.590Z,22.46
2022-08-20T01:15:06.281Z,22.37
2022-08-20T01:17:41.765Z,22.25
2022-08-20T01:20:16.633Z,22.23
2022-08-20T01:23:09.070Z,22.30
2022-08-20T01:25:49.933Z,22.41
2022-08-20T01:28:24.102Z,22.48
2022-08-20T01:30:55.213Z,22.39
2022-08-20T01:33:26.550Z,22.32
2022-08-20T01:35:57.582Z,22.32
2022-08-20T01:38:28.691Z,22.31
2022-08-20T01:41:12.604Z,22.24
2022-08-20T01:43:42.036Z,22.21
2022-08-20T01:46:15.142Z,22.12
2022-08-20T01:48:47.865Z,22.07
2022-08-20T01:51:21.720Z,22.05
2022-08-20T01:53:55.219Z,22.03
2022-08-20T01:56:31.144Z,22.10
2022-08-20T01:59:07.377Z,22.12
2022-08-20T02:01:46.141Z,22.11
2022-08-20T02:04:18.776Z,22.08
2022-08-20T02:06:56.362Z,22.10
2022-08-20T02:09:30.660Z,22.11
2022-08-20T02:12:03.032Z,22.19
2022-08-20T02:14:34.424Z,22.30
2022-08-20T02:17:07.178Z,22.38
2022-08-20T02:19:41.172Z,22.34
2022-08-20T02:22:18.504Z,22.31
2022-08-20T02:24:49.504Z,22.25
2022-08-20T02:27:23.569Z,22.22
2022-08-20T02:29:54.644Z,22.21
2022-08-20T02:32:34.241Z,22.22
2022-08-20T02:35:08.719Z,22.25
2022-08-20T02:37:41.560Z,22.19
2022-08-20T02:40:16.452Z,22.19
2022-08-20T02:42:47.850Z,22.19
2022-08-20T02:45:20.033Z,22.17
2022-08-20T02:47:54.333Z,22.19
2022-08-20T02:50:27.109Z,22.27
2022-08-20T02:52:57.830Z,22.31
2022-08-20T02:55:28.556Z,22.30
2022-08-20T02:58:00.676Z,22.24
2022-08-20T03:00:38.462Z,22.25
2022-08-20T03:03:10.749Z,22.22
2022-08-20T03:05:40.813Z,22.24
2022-08-20T03:08:10.866Z,22.23
2022-08-20T03:10:43.934Z,22.15
2022-08-20T03:13:15.883Z,22.06
2022-08-20T03:15:48.059Z,22.05
2022-08-20T03:18:20.990Z,22.07
2022-08-20T03:20:52.401Z,22.03
2022-08-20T03:23:23.736Z,22.03
2022-08-20T03:25:54.462Z,22.04
2022-08-20T03:28:25.114Z,22.02
2022-08-20T03:30:56.551Z,22.05
2022-08-20T03:33:27.661Z,22.05
2022-08-20T03:35:58.382Z,22.05
2022-08-20T03:38:33.011Z,22.02
2022-08-20T03:41:04.960Z,21.95
2022-08-20T03:43:37.413Z,21.94
2022-08-20T03:46:22.955Z,21.80
2022-08-20T03:48:59.706Z,21.70
2022-08-20T03:51:43.989Z,21.62
2022-08-20T03:54:23.202Z,21.68
2022-08-20T03:56:53.862Z,21.74
2022-08-20T03:59:24.635Z,21.72
2022-08-20T04:01:55.387Z,21.79
2022-08-20T04:04:26.195Z,21.89
2022-08-20T04:06:57.131Z,21.96
2022-08-20T04:09:28.922Z,21.88
2022-08-20T04:12:00.283Z,21.77
2022-08-20T04:14:30.964Z,21.72
2022-08-20T04:17:07.853Z,21.67
2022-08-20T04:19:39.306Z,21.67
2022-08-20T04:22:10.796Z,21.62
2022-08-20T04:24:41.452Z,21.58
2022-08-20T04:27:14.841Z,21.51
2022-08-20T04:29:45.727Z,21.40
2022-08-20T04:32:17.913Z,21.38
2022-08-20T04:34:51.477Z,21.30
2022-08-20T04:37:24.252Z,21.22
2022-08-20T04:40:12.734Z,21.25
2022-08-20T04:42:43.540Z,21.29
2022-08-20T04:45:14.989Z,21.30
2022-08-20T04:47:46.364Z,21.28
2022-08-20T04:50:18.285Z,21.25
2022-08-20T04:52:50.117Z,21.18
2022-08-20T04:55:21.071Z,21.15
2022-08-20T04:57:52.551Z,21.11
2022-08-20T05:00:23.405Z,21.10
2022-08-20T05:02:54.108Z,21.07
2022-08-20T05:05:24.955Z,21.06
2022-08-20T05:07:56.478Z,21.00
2022-08-20T05:10:27.731Z,20.97
2022-08-20T05:12:58.907Z,21.02
2022-08-20T05:15:29.655Z,20.99
2022-08-20T05:18:03.081Z,20.97
2022-08-20T05:20:39.928Z,20.93
2022-08-20T05:23:12.799Z,20.94
2022-08-20T05:25:45.527Z,21.00
2022-08-20T05:28:22.027Z,21.08
2022-08-20T05:30:54.579Z,21.12
2022-08-20T05:33:25.344Z,21.12
2022-08-20T05:35:57.632Z,21.12
2022-08-20T05:38:30.993Z,21.04
2022-08-20T05:41:02.125Z,21.00
2022-08-20T05:43:33.587Z,20.98
2022-08-20T05:46:04.275Z,20.96
2022-08-20T05:48:37.798Z,20.97
2022-08-20T05:51:12.070Z,21.03
2022-08-20T05:53:45.551Z,21.05
2022-08-20T05:56:16.301Z,21.16
2022-08-20T05:58:47.070Z,21.32
2022-08-20T06:01:17.778Z,21.39
2022-08-20T06:04:06.060Z,21.44
2022-08-20T06:06:45.574Z,21.47
2022-08-20T06:09:28.068Z,21.50
2022-08-20T06:12:04.281Z,21.60
2022-08-20T06:14:35.951Z,21.71
2022-08-20T06:17:09.699Z,21.80
2022-08-20T06:19:44.285Z,21.88
2022-08-20T06:22:19.064Z,21.96
2022-08-20T06:25:07.917Z,22.02
2022-08-20T06:27:41.254Z,22.08
2022-08-20T06:30:15.294Z,22.15
2022-08-20T06:32:46.786Z,22.21
2022-08-20T06:35:19.994Z,22.22
2022-08-20T06:37:52.951Z,22.17
2022-08-20T06:40:26.443Z,22.14
2022-08-20T06:42:58.427Z,22.17
2022-08-20T06:45:29.331Z,22.21
2022-08-20T06:48:03.090Z,22.19
2022-08-20T06:50:43.151Z,22.09
2022-08-20T06:53:21.684Z,21.95
2022-08-20T06:55:55.059Z,21.82
2022-08-20T06:58:36.126Z,21.80
2022-08-20T07:01:11.264Z,21.82
2022-08-20T07:03:55.679Z,21.76
2022-08-20T07:06:27.374Z,21.64
2022-08-20T07:08:58.088Z,21.64
2022-08-20T07:11:29.331Z,21.64
2022-08-20T07:14:01.305Z,21.61
2022-08-20T07:16:32.979Z,21.60
2022-08-20T07:19:03.752Z,21.60
2022-08-20T07:21:34.416Z,21.65
2022-08-20T07:24:06.279Z,21.72
2022-08-20T07:26:37.177Z,21.74
2022-08-20T07:29:07.896Z,21.74
2022-08-20T07:31:56.469Z,21.68
2022-08-20T07:34:27.162Z,21.56
2022-08-20T07:37:01.519Z,21.57
2022-08-20T07:39:32.299Z,21.63
2022-08-20T07:42:07.261Z,21.67
2022-08-20T07:44:39.450Z,21.68
2022-08-20T07:47:10.332Z,21.77
2022-08-20T07:49:41.990Z,21.86
2022-08-20T07:52:13.276Z,21.96
2022-08-20T07:54:44.239Z,22.03
2022-08-20T07:57:17.414Z,22.07
2022-08-20T07:59:48.847Z,22.05
2022-08-20T08:02:19.533Z,22.05
2022-08-20T08:04:50.261Z,22.01
2022-08-20T08:07:22.093Z,21.96
2022-08-20T08:09:53.318Z,21.92
2022-08-20T08:12:26.413Z,21.91
2022-08-20T08:14:57.182Z,21.89
2022-08-20T08:17:31.281Z,21.88
2022-08-20T08:20:02.334Z,21.93
2022-08-20T08:22:33.956Z,21.98
2022-08-20T08:25:05.676Z,22.04
2022-08-20T08:27:36.366Z,22.25
2022-08-20T08:30:09.376Z,22.44
2022-08-20T08:33:00.732Z,22.49
2022-08-20T08:35:32.655Z,22.60
2022-08-20T08:38:02.577Z,22.70
2022-08-20T08:40:34.957Z,22.74
2022-08-20T08:43:07.214Z,22.82
2022-08-20T08:45:45.733Z,22.90
2022-08-20T08:48:21.274Z,22.96
2022-08-20T08:50:57.592Z,23.00
2022-08-20T08:53:32.080Z,23.05
2022-08-20T08:56:04.383Z,23.11
2022-08-20T08:58:35.371Z,23.10
2022-08-20T09:01:53.130Z,23.07
2022-08-20T09:04:06.057Z,23.09
2022-08-20T09:06:37.126Z,23.09
2022-08-20T09:09:12.200Z,23.13
2022-08-20T09:11:51.337Z,23.14
2022-08-20T09:14:25.021Z,23.11
2022-08-20T09:16:55.748Z,23.08
2022-08-20T09:19:26.608Z,23.08
2022-08-20T09:21:57.536Z,23.11
2022-08-20T09:24:28.182Z,23.10
2022-08-20T09:26:58.853Z,23.09
2022-08-20T09:29:30.493Z,23.08
2022-08-20T09:32:10.791Z,23.06
2022-08-20T09:34:43.412Z,23.06
2022-08-20T09:37:14.585Z,23.09
2022-08-20T09:39:45.545Z,23.08
2022-08-20T09:42:19.427Z,23.06
2022-08-20T09:44:51.565Z,23.02
2022-08-20T09:47:22.503Z,23.04
2022-08-20T09:49:53.621Z,23.00
2022-08-20T09:52:26.665Z,22.87
2022-08-20T09:55:01.270Z,22.77
2022-08-20T09:57:33.972Z,22.73
2022-08-20T10:00:11.977Z,22.74
2022-08-20T10:02:45.587Z,22.85
2022-08-20T10:05:16.887Z,22.88
2022-08-20T10:07:47.660Z,22.84
2022-08-20T10:10:18.797Z,22.80
2022-08-20T10:12:54.226Z,22.76
2022-08-20T10:15:25.736Z,22.68
2022-08-20T10:17:57.495Z,22.60
2022-08-20T10:20:28.662Z,22.51
2022-08-20T10:22:59.764Z,22.43
2022-08-20T10:25:30.468Z,22.35
2022-08-20T10:28:01.127Z,22.26
2022-08-20T10:30:32.004Z,22.18
2022-08-20T10:33:02.870Z,22.15
2022-08-20T10:35:33.797Z,22.13
2022-08-20T10:38:04.494Z,22.12
2022-08-20T10:40:35.289Z,22.10
2022-08-20T10:43:06.205Z,22.05
2022-08-20T10:45:36.966Z,21.98
2022-08-20T10:48:11.239Z,21.96
2022-08-20T10:50:41.935Z,21.95
2022-08-20T10:53:13.124Z,21.94
2022-08-20T10:55:44.193Z,21.94
2022-08-20T10:58:15.077Z,21.91
2022-08-20T11:00:47.298Z,21.88
2022-08-20T11:03:18.093Z,21.85
2022-08-20T11:05:48.864Z,21.86
2022-08-20T11:08:22.638Z,21.88
2022-08-20T11:11:05.363Z,21.88
2022-08-20T11:13:37.015Z,21.87
2022-08-20T11:16:08.423Z,21.84
2022-08-20T11:18:40.975Z,21.82
2022-08-20T11:21:14.550Z,21.82
2022-08-20T11:23:45.288Z,21.84
2022-08-20T11:26:23.279Z,21.86
2022-08-20T11:28:52.521Z,21.87
2022-08-20T11:31:23.242Z,21.86
2022-08-20T11:33:53.979Z,21.85
2022-08-20T11:36:26.470Z,21.85
2022-08-20T11:38:57.216Z,21.86
2022-08-20T11:41:27.973Z,21.87
2022-08-20T11:44:20.390Z,21.86
2022-08-20T11:46:49.455Z,21.84
2022-08-20T11:49:20.273Z,21.82
2022-08-20T11:51:51.158Z,21.78
2022-08-20T11:54:21.932Z,21.78
2022-08-20T11:56:52.969Z,21.76
2022-08-20T11:59:23.693Z,21.74
2022-08-20T12:02:02.227Z,21.74
2022-08-20T12:04:35.193Z,21.72
2022-08-20T12:07:15.655Z,21.70
2022-08-20T12:09:51.387Z,21.70
2022-08-20T12:12:24.158Z,21.70
2022-08-20T12:14:56.101Z,21.69
2022-08-20T12:17:27.239Z,21.71
2022-08-20T12:19:59.821Z,21.70
2022-08-20T12:22:30.712Z,21.65
2022-08-20T12:25:01.580Z,21.57
2022-08-20T12:27:34.034Z,21.53
2022-08-20T12:30:08.166Z,21.52
2022-08-20T12:32:39.265Z,21.52
2022-08-20T12:35:11.982Z,21.53
2022-08-20T12:37:43.630Z,21.53
2022-08-20T12:40:32.130Z,21.51
2022-08-20T12:43:05.292Z,21.54
2022-08-20T12:45:36.941Z,21.55
2022-08-20T12:48:10.844Z,21.54
2022-08-20T12:50:45.660Z,21.51
2022-08-20T12:53:16.450Z,21.46
2022-08-20T12:55:47.558Z,21.45
2022-08-20T12:58:19.251Z,21.44
2022-08-20T13:00:50.880Z,21.43
2022-08-20T13:03:22.609Z,21.41
2022-08-20T13:05:53.488Z,21.41
2022-08-20T13:08:24.384Z,21.38
2022-08-20T13:10:55.211Z,21.41
2022-08-20T13:13:25.951Z,21.44
2022-08-20T13:15:56.633Z,21.49
2022-08-20T13:18:27.344Z,21.52
2022-08-20T13:20:58.059Z,21.56
2022-08-20T13:23:29.504Z,21.61
2022-08-20T13:26:00.465Z,21.62
2022-08-20T13:28:31.790Z,21.62
2022-08-20T13:31:03.517Z,21.64
2022-08-20T13:33:34.484Z,21.66
2022-08-20T13:36:06.090Z,21.68
2022-08-20T13:38:36.881Z,21.68
2022-08-20T13:41:07.858Z,21.68
2022-08-20T13:43:38.644Z,21.71
2022-08-20T13:46:09.530Z,21.75
2022-08-20T13:48:40.313Z,21.78
2022-08-20T13:51:11.169Z,21.81
2022-08-20T13:53:41.986Z,21.81
2022-08-20T13:56:14.906Z,21.80
2022-08-20T13:58:45.634Z,21.79
2022-08-20T14:01:16.639Z,21.80
2022-08-20T14:03:47.942Z,21.78
2022-08-20T14:06:19.277Z,21.74
2022-08-20T14:08:50.019Z,21.70
2022-08-20T14:11:20.814Z,21.70
2022-08-20T14:13:51.635Z,21.67
2022-08-20T14:16:27.645Z,21.67
2022-08-20T14:19:13.330Z,21.63
2022-08-20T14:21:44.081Z,21.55
2022-08-20T14:24:14.835Z,21.48
2022-08-20T14:26:45.696Z,21.43
2022-08-20T14:29:19.750Z,21.40
2022-08-20T14:31:51.032Z,21.32
2022-08-20T14:34:21.747Z,21.20
2022-08-20T14:36:53.278Z,21.07
2022-08-20T14:39:26.174Z,21.00
2022-08-20T14:41:57.043Z,20.96
2022-08-20T14:44:29.695Z,20.93
2022-08-20T14:47:10.388Z,20.92
2022-08-20T14:49:41.213Z,20.90
2022-08-20T14:52:12.575Z,20.95
2022-08-20T14:54:44.511Z,20.96
2022-08-20T14:57:16.296Z,20.98
2022-08-20T14:59:48.109Z,20.98
2022-08-20T15:02:19.825Z,21.00
2022-08-20T15:04:53.932Z,21.02
2022-08-20T15:07:31.079Z,21.02
2022-08-20T15:10:04.029Z,20.96
2022-08-20T15:12:35.413Z,20.89
2022-08-20T15:15:15.380Z,20.82
2022-08-20T15:17:49.082Z,20.80
2022-08-20T15:20:23.531Z,20.80
2022-08-20T15:22:55.988Z,20.78
2022-08-20T15:25:36.087Z,20.78
2022-08-20T15:28:10.465Z,20.81
2022-08-20T15:30:42.836Z,20.84
2022-08-20T15:33:13.868Z,20.88
2022-08-20T15:35:44.604Z,20.89
2022-08-20T15:38:15.370Z,20.92
2022-08-20T15:40:46.218Z,20.92
2022-08-20T15:43:16.917Z,20.93
2022-08-20T15:45:47.723Z,20.94
2022-08-20T15:48:22.167Z,20.99
2022-08-20T15:51:16.673Z,21.05
2022-08-20T15:53:56.059Z,21.10
2022-08-20T15:56:40.710Z,21.11
2022-08-20T15:59:23.901Z,21.12
2022-08-20T16:02:05.185Z,21.12
2022-08-20T16:05:04.631Z,21.17
2022-08-20T16:07:43.906Z,21.21
2022-08-20T16:10:23.943Z,21.24
2022-08-20T16:12:59.110Z,21.24
2022-08-20T16:15:35.463Z,21.25
2022-08-20T16:18:11.554Z,21.25
2022-08-20T16:20:45.410Z,21.29
2022-08-20T16:23:21.822Z,21.32
2022-08-20T16:26:06.229Z,21.33
2022-08-20T16:28:47.879Z,21.34
2022-08-20T16:31:23.673Z,21.34
2022-08-20T16:34:04.381Z,21.36
2022-08-20T16:36:44.522Z,21.39
2022-08-20T16:39:22.036Z,21.41
2022-08-20T16:41:55.843Z,21.41
2022-08-20T16:44:33.688Z,21.38
2022-08-20T16:47:14.874Z,21.35
2022-08-20T16:49:51.023Z,21.35
2022-08-20T16:52:22.334Z,21.35
2022-08-20T16:54:53.138Z,21.32
2022-08-20T16:57:23.957Z,21.30
2022-08-20T17:00:00.981Z,21.28
2022-08-20T17:02:31.695Z,21.24
2022-08-20T17:05:06.622Z,21.24
2022-08-20T17:07:46.549Z,21.22
2022-08-20T17:10:24.659Z,21.20
2022-08-20T17:12:59.509Z,21.17
2022-08-20T17:15:33.100Z,21.12
2022-08-20T17:18:21.290Z,21.10
2022-08-20T17:20:52.850Z,21.04
2022-08-20T17:23:23.988Z,21.02
2022-08-20T17:26:04.260Z,21.01
2022-08-20T17:28:36.472Z,20.99
2022-08-20T17:31:07.373Z,20.97
2022-08-20T17:33:40.405Z,20.93
2022-08-20T17:36:19.822Z,20.91
2022-08-20T17:38:53.215Z,20.89
2022-08-20T17:41:27.039Z,20.86
2022-08-20T17:44:03.862Z,20.80
2022-08-20T17:46:40.879Z,20.73
2022-08-20T17:49:16.573Z,20.63
2022-08-20T17:51:53.194Z,20.59
2022-08-20T17:54:27.857Z,20.59
2022-08-20T17:57:04.766Z,20.56
2022-08-20T18:00:01.356Z,20.49
2022-08-20T18:02:32.697Z,20.41
2022-08-20T18:05:07.490Z,20.36
2022-08-20T18:07:46.650Z,20.35
2022-08-20T18:10:24.974Z,20.35
2022-08-20T18:13:01.020Z,20.34
2022-08-20T18:15:35.683Z,20.25
2022-08-20T18:18:19.182Z,20.23
2022-08-20T18:21:12.412Z,20.24
2022-08-20T18:23:47.665Z,20.28
2022-08-20T18:26:22.588Z,20.26
2022-08-20T18:28:58.703Z,20.23
2022-08-20T18:31:32.676Z,20.23
2022-08-20T18:34:16.030Z,20.32
2022-08-20T18:36:56.986Z,20.54
2022-08-20T18:39:32.023Z,20.82
2022-08-20T18:42:05.773Z,21.04
2022-08-20T18:44:45.034Z,21.01
2022-08-20T18:47:25.660Z,20.95
2022-08-20T18:50:16.800Z,21.05
2022-08-20T18:52:50.876Z,21.26
2022-08-20T18:55:34.298Z,21.41
2022-08-20T18:58:08.943Z,21.49
2022-08-20T19:00:44.276Z,21.47
2022-08-20T19:03:26.233Z,21.41
2022-08-20T19:06:18.187Z,21.35
2022-08-20T19:08:53.837Z,21.25
2022-08-20T19:11:45.572Z,21.13
2022-08-20T19:14:42.150Z,20.99
2022-08-20T19:17:17.519Z,20.87
2022-08-20T19:19:58.919Z,20.80
2022-08-20T19:22:30.239Z,20.74
2022-08-20T19:25:01.169Z,20.70
2022-08-20T19:27:32.407Z,20.65
2022-08-20T19:30:03.412Z,20.58
2022-08-20T19:32:37.252Z,20.53
2022-08-20T19:35:18.501Z,20.51
2022-08-20T19:37:51.060Z,20.51
2022-08-20T19:40:28.800Z,20.49
2022-08-20T19:43:02.022Z,20.47
2022-08-20T19:45:40.743Z,20.44
2022-08-20T19:48:27.367Z,20.39
2022-08-20T19:51:07.730Z,20.36
2022-08-20T19:53:44.842Z,20.36
2022-08-20T19:56:19.500Z,20.33
2022-08-20T19:59:01.917Z,20.30
2022-08-20T20:01:33.608Z,20.28
2022-08-20T20:04:07.326Z,20.28
2022-08-20T20:06:44.648Z,20.30
2022-08-20T20:09:22.215Z,20.32
2022-08-20T20:11:57.870Z,20.31
2022-08-20T20:14:31.256Z,20.31
2022-08-20T20:17:05.301Z,20.32
2022-08-20T20:19:48.390Z,20.34
2022-08-20T20:22:26.095Z,20.34
2022-08-20T20:25:08.946Z,20.33
2022-08-20T20:27:40.076Z,20.30
2022-08-20T20:30:21.727Z,20.27
2022-08-20T20:32:53.287Z,20.26
2022-08-20T20:35:31.012Z,20.23
2022-08-20T20:38:06.878Z,20.17
2022-08-20T20:40:47.699Z,20.16
2022-08-20T20:43:33.705Z,20.13
2022-08-20T20:46:19.057Z,20.06
2022-08-20T20:48:52.546Z,19.99
2022-08-20T20:51:27.966Z,19.98
2022-08-20T20:54:01.858Z,20.02
2022-08-20T20:56:37.960Z,20.06
2022-08-20T20:59:10.695Z,20.10
2022-08-20T21:01:50.054Z,20.12
2022-08-20T21:04:24.164Z,20.12
2022-08-20T21:06:59.517Z,20.12
2022-08-20T21:09:30.211Z,20.13
2022-08-20T21:12:00.913Z,20.05
2022-08-20T21:14:32.021Z,19.96
2022-08-20T21:17:05.441Z,19.92
2022-08-20T21:19:41.107Z,19.92
2022-08-20T21:22:20.834Z,19.88
2022-08-20T21:24:51.542Z,19.96
2022-08-20T21:27:25.593Z,19.94
2022-08-20T21:29:56.651Z,19.90
2022-08-20T21:32:27.548Z,19.88
2022-08-20T21:34:58.183Z,19.86
2022-08-20T21:37:28.940Z,19.82
2022-08-20T21:40:00.214Z,19.78
2022-08-20T21:42:37.250Z,19.79
2022-08-20T21:45:11.511Z,19.84
2022-08-20T21:47:42.874Z,19.89
2022-08-20T21:50:19.282Z,19.93
2022-08-20T21:52:59.161Z,19.98
2022-08-20T21:55:39.419Z,19.98
2022-08-20T21:58:13.628Z,19.99
2022-08-20T22:00:54.799Z,19.99
2022-08-20T22:03:28.053Z,19.98
2022-08-20T22:05:59.473Z,20.00
2022-08-20T22:08:30.708Z,20.02
2022-08-20T22:11:02.918Z,20.03
2022-08-20T22:13:34.731Z,20.01
2022-08-20T22:16:08.407Z,20.01
2022-08-20T22:18:39.544Z,20.02
2022-08-20T22:21:16.159Z,20.03
2022-08-20T22:23:46.921Z,20.05
2022-08-20T22:26:18.969Z,20.04
2022-08-20T22:28:51.207Z,20.02
2022-08-20T22:31:29.949Z,20.03
2022-08-20T22:34:01.446Z,20.01
2022-08-20T22:36:32.658Z,20.06
2022-08-20T22:39:03.440Z,20.06
2022-08-20T22:41:34.201Z,20.06
2022-08-20T22:44:05.343Z,20.04
2022-08-20T22:46:43.686Z,20.04
2022-08-20T22:49:22.862Z,20.05
2022-08-20T22:51:53.547Z,20.04
2022-08-20T22:54:25.747Z,20.05
2022-08-20T22:56:57.011Z,20.05
2022-08-20T22:59:27.732Z,20.05
2022-08-20T23:01:59.134Z,20.06
2022-08-20T23:04:33.560Z,20.08
2022-08-20T23:07:05.773Z,20.09
2022-08-20T23:09:36.439Z,20.09
2022-08-20T23:12:08.697Z,20.09
2022-08-20T23:14:39.644Z,20.06
2022-08-20T23:17:13.963Z,20.04
2022-08-20T23:19:48.411Z,20.02
2022-08-20T23:22:20.290Z,20.03
2022-08-20T23:24:50.924Z,20.13
2022-08-20T23:27:22.905Z,20.38
2022-08-20T23:29:52.125Z,20.53
2022-08-20T23:32:22.849Z,20.71
2022-08-20T23:34:53.778Z,20.86
2022-08-20T23:37:25.020Z,20.97
2022-08-20T23:39:55.763Z,21.03
2022-08-20T23:42:26.547Z,21.04
2022-08-20T23:44:57.198Z,21.10
2022-08-20T23:47:28.466Z,21.12
2022-08-20T23:49:59.291Z,21.16
2022-08-20T23:52:30.445Z,21.20
2022-08-20T23:55:01.112Z,21.25
2022-08-20T23:57:31.956Z,21.29
